< Typhoon 195414 1954 Season Typhoon 195416 >
Typhoon 195415 (MARIE)
Toyamaru Typhoon
General InformationTrack Information on Google Maps || NewsDisaster Info.ResourceGoogle EarthGE AnimationAtom FeedGeoJSON
Detalied Best Track (Time Zone = UTC)
Year Month Day Hour Lat. Long. Pressure (hPa) Wind (kt) Class Image Chart
1954 9 17 18 10.6 150.0 1004 0 2 -- Chart
1954 9 18 00 10.8 148.5 1004 0 2 -- Chart
1954 9 18 06 11.0 147.5 1004 0 2 -- Chart
1954 9 18 12 11.1 146.5 1004 0 2 -- Chart
1954 9 18 18 11.2 145.5 1004 0 2 -- Chart
1954 9 19 00 11.3 144.3 1004 0 2 -- Chart
1954 9 19 06 11.7 143.5 1002 0 2 -- Chart
1954 9 19 12 12.1 142.6 1002 0 2 -- Chart
1954 9 19 18 12.5 141.7 1002 0 2 -- Chart
1954 9 20 00 13.1 141.0 1002 0 2 -- Chart
1954 9 20 06 13.0 139.9 998 0 2 -- Chart
1954 9 20 12 13.0 138.9 998 0 2 -- Chart
1954 9 20 18 13.0 137.8 998 0 9 -- Chart
1954 9 21 00 13.1 136.6 1000 0 2 -- Chart
1954 9 21 06 13.7 135.7 1000 0 2 -- Chart
1954 9 21 12 13.7 134.8 1000 0 2 -- Chart
1954 9 21 18 13.8 133.8 1000 0 2 -- Chart
1954 9 22 00 13.9 133.0 1000 0 2 -- Chart
1954 9 22 06 14.8 131.4 1000 0 2 -- Chart
1954 9 22 12 15.2 130.6 1000 0 2 -- Chart
1954 9 22 18 15.8 129.7 1000 0 2 -- Chart
1954 9 23 00 16.3 128.6 992 0 9 -- Chart
1954 9 23 06 17.0 127.6 990 0 9 -- Chart
1954 9 23 12 17.8 126.7 990 0 9 -- Chart
1954 9 23 18 18.4 125.4 990 0 9 -- Chart
1954 9 24 00 19.4 124.4 990 0 9 -- Chart
1954 9 24 06 20.2 123.6 990 0 9 -- Chart
1954 9 24 12 22.0 123.0 980 0 9 -- Chart
1954 9 24 18 23.4 123.3 975 0 9 -- Chart
1954 9 25 00 24.8 124.0 975 0 9 -- Chart
1954 9 25 06 26.6 125.7 975 0 9 -- Chart
1954 9 25 12 28.9 128.3 970 0 9 -- Chart
1954 9 25 18 32.0 131.0 966 0 9 -- Chart
1954 9 26 00 36.5 134.5 964 0 9 -- Chart
1954 9 26 06 41.1 138.8 960 0 9 -- Chart
1954 9 26 12 42.9 139.9 956 0 9 -- Chart
1954 9 26 18 45.0 141.9 958 0 9 -- Chart
1954 9 27 00 49.0 145.0 960 0 9 -- Chart
1954 9 27 06 51.0 150.0 965 0 9 -- Chart
1954 9 27 12 52.0 153.0 965 0 9 -- Chart
1954 9 27 18 52.0 156.1 970 0 9 -- Chart
1954 9 28 00 53.0 161.0 980 0 6 -- Chart
1954 9 28 06 53.1 167.0 988 0 6 -- Chart
1954 9 28 12 53.0 170.9 988 0 6 -- Chart
1954 9 28 18 53.0 175.7 986 0 6 -- Chart
1954 9 29 00 53.0 180.0 988 0 6 -- Chart
1954 9 29 06 51.0 185.0 994 0 6 -- Chart
Japan Meteorological Agency Best Track Data | Correction Date : 1989-06-01
< Typhoon 195414 1954 Season Typhoon 195416 >

Help